sensor_id;sensor_type;location;lat;lon;timestamp;pressure;altitude;pressure_sealevel;temperature;humidity
7157;BME280;3620;49.862;8.758;2022-08-06T00:00:10;99913.28;;;20.57;64.45
7157;BME280;3620;49.862;8.758;2022-08-06T00:02:37;99913.50;;;20.54;64.59
7157;BME280;3620;49.862;8.758;2022-08-06T00:05:04;99918.25;;;20.51;64.48
7157;BME280;3620;49.862;8.758;2022-08-06T00:07:33;99918.63;;;20.33;65.19
7157;BME280;3620;49.862;8.758;2022-08-06T00:10:00;99919.44;;;20.23;65.51
7157;BME280;3620;49.862;8.758;2022-08-06T00:12:27;99919.00;;;20.16;64.98
7157;BME280;3620;49.862;8.758;2022-08-06T00:14:53;99923.75;;;20.00;65.61
7157;BME280;3620;49.862;8.758;2022-08-06T00:17:20;99934.44;;;20.00;64.59
7157;BME280;3620;49.862;8.758;2022-08-06T00:19:47;99937.03;;;19.89;65.33
7157;BME280;3620;49.862;8.758;2022-08-06T00:22:13;99937.03;;;19.89;64.88
7157;BME280;3620;49.862;8.758;2022-08-06T00:24:41;99941.72;;;19.98;64.33
7157;BME280;3620;49.862;8.758;2022-08-06T00:27:08;99946.03;;;19.88;64.03
7157;BME280;3620;49.862;8.758;2022-08-06T00:29:35;99947.50;;;19.92;63.70
7157;BME280;3620;49.862;8.758;2022-08-06T00:32:02;99951.38;;;19.75;63.42
7157;BME280;3620;49.862;8.758;2022-08-06T00:34:29;99951.13;;;19.91;63.49
7157;BME280;3620;49.862;8.758;2022-08-06T00:36:56;99963.09;;;19.98;62.97
7157;BME280;3620;49.862;8.758;2022-08-06T00:39:22;99966.50;;;20.00;61.80
7157;BME280;3620;49.862;8.758;2022-08-06T00:41:50;99971.84;;;20.00;62.63
7157;BME280;3620;49.862;8.758;2022-08-06T00:44:17;99977.19;;;20.00;62.27
7157;BME280;3620;49.862;8.758;2022-08-06T00:46:44;99982.97;;;19.94;61.49
7157;BME280;3620;49.862;8.758;2022-08-06T00:49:12;99980.88;;;19.74;61.63
7157;BME280;3620;49.862;8.758;2022-08-06T00:51:39;99977.66;;;19.69;61.72
7157;BME280;3620;49.862;8.758;2022-08-06T00:54:06;99978.31;;;19.72;62.03
7157;BME280;3620;49.862;8.758;2022-08-06T00:56:33;99983.00;;;19.69;61.36
7157;BME280;3620;49.862;8.758;2022-08-06T00:59:01;99983.97;;;19.68;61.47
7157;BME280;3620;49.862;8.758;2022-08-06T01:01:27;99986.66;;;19.68;61.56
7157;BME280;3620;49.862;8.758;2022-08-06T01:03:54;99986.22;;;19.61;61.84
7157;BME280;3620;49.862;8.758;2022-08-06T01:06:21;99986.84;;;19.65;61.42
7157;BME280;3620;49.862;8.758;2022-08-06T01:08:48;99979.59;;;19.67;61.79
7157;BME280;3620;49.862;8.758;2022-08-06T01:11:15;99977.56;;;19.70;61.46
7157;BME280;3620;49.862;8.758;2022-08-06T01:13:41;99980.00;;;19.73;61.36
7157;BME280;3620;49.862;8.758;2022-08-06T01:16:15;99986.22;;;19.74;60.80
7157;BME280;3620;49.862;8.758;2022-08-06T01:18:48;99987.28;;;19.59;61.08
7157;BME280;3620;49.862;8.758;2022-08-06T01:24:33;99990.91;;;19.58;61.17
7157;BME280;3620;49.862;8.758;2022-08-06T01:27:28;99991.56;;;19.61;61.54
7157;BME280;3620;49.862;8.758;2022-08-06T01:30:03;99996.78;;;19.63;61.69
7157;BME280;3620;49.862;8.758;2022-08-06T01:32:35;99993.91;;;19.66;62.10
7157;BME280;3620;49.862;8.758;2022-08-06T01:35:06;99989.84;;;19.73;61.68
7157;BME280;3620;49.862;8.758;2022-08-06T01:37:39;99990.25;;;19.67;61.42
7157;BME280;3620;49.862;8.758;2022-08-06T01:40:13;99994.66;;;19.68;61.15
7157;BME280;3620;49.862;8.758;2022-08-06T01:42:43;99991.25;;;19.66;61.64
7157;BME280;3620;49.862;8.758;2022-08-06T01:45:12;99993.91;;;19.66;60.91
7157;BME280;3620;49.862;8.758;2022-08-06T01:47:41;99991.03;;;19.56;61.07
7157;BME280;3620;49.862;8.758;2022-08-06T01:50:09;99994.75;;;19.54;60.95
7157;BME280;3620;49.862;8.758;2022-08-06T01:52:39;99998.59;;;19.50;60.60
7157;BME280;3620;49.862;8.758;2022-08-06T01:55:10;99992.31;;;19.51;60.37
7157;BME280;3620;49.862;8.758;2022-08-06T01:57:43;99995.31;;;19.46;60.50
7157;BME280;3620;49.862;8.758;2022-08-06T02:00:12;99999.06;;;19.44;61.15
7157;BME280;3620;49.862;8.758;2022-08-06T02:02:40;99992.22;;;19.40;59.81
7157;BME280;3620;49.862;8.758;2022-08-06T02:05:09;99989.88;;;19.35;60.60
7157;BME280;3620;49.862;8.758;2022-08-06T02:07:40;99992.91;;;19.29;61.10
7157;BME280;3620;49.862;8.758;2022-08-06T02:10:09;100002.50;;;19.32;61.04
7157;BME280;3620;49.862;8.758;2022-08-06T02:12:39;100006.91;;;19.33;60.23
7157;BME280;3620;49.862;8.758;2022-08-06T02:15:12;100005.72;;;19.24;59.65
7157;BME280;3620;49.862;8.758;2022-08-06T02:17:43;100009.47;;;19.22;60.54
7157;BME280;3620;49.862;8.758;2022-08-06T02:20:15;100003.06;;;19.24;60.14
7157;BME280;3620;49.862;8.758;2022-08-06T02:22:44;100011.38;;;19.20;59.60
7157;BME280;3620;49.862;8.758;2022-08-06T02:25:13;100008.22;;;19.00;60.18
7157;BME280;3620;49.862;8.758;2022-08-06T02:27:51;100011.13;;;18.97;59.81
7157;BME280;3620;49.862;8.758;2022-08-06T02:30:20;100006.44;;;19.01;60.38
7157;BME280;3620;49.862;8.758;2022-08-06T02:32:48;100007.28;;;19.01;59.64
7157;BME280;3620;49.862;8.758;2022-08-06T02:35:15;100018.34;;;18.95;59.65
7157;BME280;3620;49.862;8.758;2022-08-06T02:37:48;100015.34;;;18.87;60.54
7157;BME280;3620;49.862;8.758;2022-08-06T02:40:20;100015.75;;;18.81;60.33
7157;BME280;3620;49.862;8.758;2022-08-06T02:42:53;100012.13;;;18.82;60.81
7157;BME280;3620;49.862;8.758;2022-08-06T02:45:27;100015.34;;;18.87;60.46
7157;BME280;3620;49.862;8.758;2022-08-06T02:48:00;100017.81;;;18.90;60.88
7157;BME280;3620;49.862;8.758;2022-08-06T02:50:33;100014.19;;;18.91;60.26
7157;BME280;3620;49.862;8.758;2022-08-06T02:53:02;100023.16;;;18.90;60.45
7157;BME280;3620;49.862;8.758;2022-08-06T02:55:32;100022.41;;;18.88;60.21
7157;BME280;3620;49.862;8.758;2022-08-06T02:58:06;100024.72;;;18.80;60.21
7157;BME280;3620;49.862;8.758;2022-08-06T03:00:36;100030.25;;;18.77;60.74
7157;BME280;3620;49.862;8.758;2022-08-06T03:03:05;100028.34;;;18.79;60.91
7157;BME280;3620;49.862;8.758;2022-08-06T03:05:34;100022.91;;;18.81;60.85
7157;BME280;3620;49.862;8.758;2022-08-06T03:08:03;100033.69;;;18.79;59.82
7157;BME280;3620;49.862;8.758;2022-08-06T03:10:33;100040.47;;;18.71;60.58
7157;BME280;3620;49.862;8.758;2022-08-06T03:13:02;100041.53;;;18.68;60.81
7157;BME280;3620;49.862;8.758;2022-08-06T03:15:30;100043.44;;;18.66;60.58
7157;BME280;3620;49.862;8.758;2022-08-06T03:18:00;100040.41;;;18.58;60.08
7157;BME280;3620;49.862;8.758;2022-08-06T03:20:29;100044.78;;;18.59;60.79
7157;BME280;3620;49.862;8.758;2022-08-06T03:22:57;100051.06;;;18.58;60.43
7157;BME280;3620;49.862;8.758;2022-08-06T03:25:26;100054.28;;;18.63;60.54
7157;BME280;3620;49.862;8.758;2022-08-06T03:27:54;100054.69;;;18.57;60.21
7157;BME280;3620;49.862;8.758;2022-08-06T03:30:21;100047.28;;;18.48;60.23
7157;BME280;3620;49.862;8.758;2022-08-06T03:32:49;100051.16;;;18.43;60.25
7157;BME280;3620;49.862;8.758;2022-08-06T03:35:18;100052.44;;;18.37;60.67
7157;BME280;3620;49.862;8.758;2022-08-06T03:37:47;100050.53;;;18.39;60.66
7157;BME280;3620;49.862;8.758;2022-08-06T03:40:17;100054.34;;;18.35;60.47
7157;BME280;3620;49.862;8.758;2022-08-06T03:42:45;100052.44;;;18.37;60.91
7157;BME280;3620;49.862;8.758;2022-08-06T03:45:12;100063.09;;;18.37;61.05
7157;BME280;3620;49.862;8.758;2022-08-06T03:47:41;100058.63;;;18.38;60.59
7157;BME280;3620;49.862;8.758;2022-08-06T03:50:11;100067.84;;;18.32;60.93
7157;BME280;3620;49.862;8.758;2022-08-06T03:52:43;100067.28;;;18.27;61.13
7157;BME280;3620;49.862;8.758;2022-08-06T03:55:14;100071.28;;;18.20;61.08
7157;BME280;3620;49.862;8.758;2022-08-06T03:57:47;100064.44;;;18.16;61.59
7157;BME280;3620;49.862;8.758;2022-08-06T04:00:17;100079.38;;;18.18;61.18
7157;BME280;3620;49.862;8.758;2022-08-06T04:02:47;100078.31;;;18.21;61.11
7157;BME280;3620;49.862;8.758;2022-08-06T04:05:16;100071.19;;;18.21;61.19
7157;BME280;3620;49.862;8.758;2022-08-06T04:07:46;100069.41;;;18.22;60.97
7157;BME280;3620;49.862;8.758;2022-08-06T04:10:13;100075.47;;;18.10;60.73
7157;BME280;3620;49.862;8.758;2022-08-06T04:12:42;100072.06;;;18.08;60.98
7157;BME280;3620;49.862;8.758;2022-08-06T04:15:11;100077.56;;;18.05;61.53
7157;BME280;3620;49.862;8.758;2022-08-06T04:17:39;100077.56;;;18.05;61.18
7157;BME280;3620;49.862;8.758;2022-08-06T04:20:08;100077.78;;;18.02;61.02
7157;BME280;3620;49.862;8.758;2022-08-06T04:22:36;100086.69;;;18.01;61.14
7157;BME280;3620;49.862;8.758;2022-08-06T04:25:05;100085.38;;;17.94;61.47
7157;BME280;3620;49.862;8.758;2022-08-06T04:27:34;100082.81;;;17.92;60.99
7157;BME280;3620;49.862;8.758;2022-08-06T04:30:02;100083.75;;;17.91;60.63
7157;BME280;3620;49.862;8.758;2022-08-06T04:32:30;100097.16;;;17.90;60.92
7157;BME280;3620;49.862;8.758;2022-08-06T04:34:59;100095.47;;;17.89;61.07
7157;BME280;3620;49.862;8.758;2022-08-06T04:37:27;100089.00;;;17.93;61.45
7157;BME280;3620;49.862;8.758;2022-08-06T04:39:54;100104.75;;;17.96;61.72
7157;BME280;3620;49.862;8.758;2022-08-06T04:42:23;100103.63;;;17.86;62.46
7157;BME280;3620;49.862;8.758;2022-08-06T04:44:51;100104.97;;;17.93;62.66
7157;BME280;3620;49.862;8.758;2022-08-06T04:47:18;100108.78;;;17.89;62.96
7157;BME280;3620;49.862;8.758;2022-08-06T04:49:45;100114.00;;;17.90;62.46
7157;BME280;3620;49.862;8.758;2022-08-06T04:52:20;100102.31;;;17.93;62.42
7157;BME280;3620;49.862;8.758;2022-08-06T04:54:47;100117.88;;;17.85;62.76
7157;BME280;3620;49.862;8.758;2022-08-06T04:57:13;100107.81;;;17.90;62.91
7157;BME280;3620;49.862;8.758;2022-08-06T04:59:42;100115.78;;;17.90;62.38
7157;BME280;3620;49.862;8.758;2022-08-06T05:02:09;100128.94;;;17.93;62.60
7157;BME280;3620;49.862;8.758;2022-08-06T05:04:36;100116.56;;;17.92;63.09
7157;BME280;3620;49.862;8.758;2022-08-06T05:07:09;100120.72;;;17.96;63.00
7157;BME280;3620;49.862;8.758;2022-08-06T05:09:37;100120.38;;;18.02;62.65
7157;BME280;3620;49.862;8.758;2022-08-06T05:12:08;100124.84;;;18.01;62.10
7157;BME280;3620;49.862;8.758;2022-08-06T05:14:43;100133.78;;;18.00;62.40
7157;BME280;3620;49.862;8.758;2022-08-06T05:17:15;100129.31;;;18.01;62.74
7157;BME280;3620;49.862;8.758;2022-08-06T05:19:44;100135.03;;;17.95;62.41
7157;BME280;3620;49.862;8.758;2022-08-06T05:22:15;100138.44;;;17.97;63.14
7157;BME280;3620;49.862;8.758;2022-08-06T05:24:42;100132.44;;;17.93;62.79
7157;BME280;3620;49.862;8.758;2022-08-06T05:27:10;100143.94;;;17.94;63.19
7157;BME280;3620;49.862;8.758;2022-08-06T05:29:39;100136.16;;;18.05;62.71
7157;BME280;3620;49.862;8.758;2022-08-06T05:32:07;100144.72;;;18.10;62.25
7157;BME280;3620;49.862;8.758;2022-08-06T05:34:34;100146.72;;;18.20;62.51
7157;BME280;3620;49.862;8.758;2022-08-06T05:37:00;100151.75;;;18.25;61.28
7157;BME280;3620;49.862;8.758;2022-08-06T05:39:27;100157.19;;;18.23;62.17
7157;BME280;3620;49.862;8.758;2022-08-06T05:41:54;100160.63;;;18.25;62.18
7157;BME280;3620;49.862;8.758;2022-08-06T05:44:20;100163.38;;;18.24;62.60
7157;BME280;3620;49.862;8.758;2022-08-06T05:46:50;100160.78;;;18.22;62.12
7157;BME280;3620;49.862;8.758;2022-08-06T05:49:22;100169.06;;;18.18;63.00
7157;BME280;3620;49.862;8.758;2022-08-06T05:51:56;100165.94;;;18.25;62.61
7157;BME280;3620;49.862;8.758;2022-08-06T05:54:30;100162.59;;;18.36;62.38
7157;BME280;3620;49.862;8.758;2022-08-06T05:57:03;100159.88;;;18.38;63.51
7157;BME280;3620;49.862;8.758;2022-08-06T05:59:34;100157.09;;;18.39;63.42
7157;BME280;3620;49.862;8.758;2022-08-06T06:02:02;100166.53;;;18.45;62.80
7157;BME280;3620;49.862;8.758;2022-08-06T06:04:34;100170.75;;;18.49;62.88
7157;BME280;3620;49.862;8.758;2022-08-06T06:07:01;100181.13;;;18.53;63.14
7157;BME280;3620;49.862;8.758;2022-08-06T06:09:28;100169.47;;;18.54;62.63
7157;BME280;3620;49.862;8.758;2022-08-06T06:11:56;100175.56;;;18.56;63.98
7157;BME280;3620;49.862;8.758;2022-08-06T06:14:35;100173.31;;;18.64;63.47
7157;BME280;3620;49.862;8.758;2022-08-06T06:17:21;100180.16;;;18.68;62.97
7157;BME280;3620;49.862;8.758;2022-08-06T06:19:57;100179.94;;;18.71;63.36
7157;BME280;3620;49.862;8.758;2022-08-06T06:22:30;100181.09;;;18.67;62.43
7157;BME280;3620;49.862;8.758;2022-08-06T06:25:06;100182.81;;;18.68;63.31
7157;BME280;3620;49.862;8.758;2022-08-06T06:27:42;100183.97;;;18.64;63.97
7157;BME280;3620;49.862;8.758;2022-08-06T06:30:15;100183.56;;;18.70;64.32
7157;BME280;3620;49.862;8.758;2022-08-06T06:32:47;100197.25;;;18.78;64.58
7157;BME280;3620;49.862;8.758;2022-08-06T06:35:39;100191.44;;;18.86;63.19
7157;BME280;3620;49.862;8.758;2022-08-06T06:38:19;100185.88;;;18.89;63.34
7157;BME280;3620;49.862;8.758;2022-08-06T06:40:53;100190.00;;;18.94;63.64
7157;BME280;3620;49.862;8.758;2022-08-06T06:43:27;100193.59;;;18.93;63.56
7157;BME280;3620;49.862;8.758;2022-08-06T06:46:01;100195.69;;;19.02;63.35
7157;BME280;3620;49.862;8.758;2022-08-06T06:48:33;100189.50;;;19.02;63.07
7157;BME280;3620;49.862;8.758;2022-08-06T06:51:06;100200.81;;;19.06;62.52
7157;BME280;3620;49.862;8.758;2022-08-06T06:53:37;100206.81;;;19.09;63.45
7157;BME280;3620;49.862;8.758;2022-08-06T06:56:08;100207.47;;;19.13;63.61
7157;BME280;3620;49.862;8.758;2022-08-06T06:58:39;100206.03;;;19.21;63.06
7157;BME280;3620;49.862;8.758;2022-08-06T07:01:09;100207.22;;;19.30;62.67
7157;BME280;3620;49.862;8.758;2022-08-06T07:03:38;100206.94;;;19.34;62.52
7157;BME280;3620;49.862;8.758;2022-08-06T07:06:08;100204.94;;;19.38;63.26
7157;BME280;3620;49.862;8.758;2022-08-06T07:08:38;100200.16;;;19.43;62.63
7157;BME280;3620;49.862;8.758;2022-08-06T07:11:10;100205.31;;;19.46;61.81
7157;BME280;3620;49.862;8.758;2022-08-06T07:13:38;100205.31;;;19.46;62.12
7157;BME280;3620;49.862;8.758;2022-08-06T07:16:06;100199.25;;;19.56;62.35
7157;BME280;3620;49.862;8.758;2022-08-06T07:18:33;100196.47;;;19.58;60.96
7157;BME280;3620;49.862;8.758;2022-08-06T07:21:01;100200.66;;;19.62;61.97
7157;BME280;3620;49.862;8.758;2022-08-06T07:23:30;100200.25;;;19.68;61.08
7157;BME280;3620;49.862;8.758;2022-08-06T07:25:58;100195.97;;;19.65;61.28
7157;BME280;3620;49.862;8.758;2022-08-06T07:28:26;100198.97;;;19.73;59.81
7157;BME280;3620;49.862;8.758;2022-08-06T07:30:53;100207.53;;;19.79;59.42
7157;BME280;3620;49.862;8.758;2022-08-06T07:33:21;100205.97;;;19.89;58.73
7157;BME280;3620;49.862;8.758;2022-08-06T07:35:50;100213.53;;;19.95;59.14
7157;BME280;3620;49.862;8.758;2022-08-06T07:38:18;100213.09;;;19.88;59.12
7157;BME280;3620;49.862;8.758;2022-08-06T07:40:51;100209.50;;;20.02;58.98
7157;BME280;3620;49.862;8.758;2022-08-06T07:43:21;100207.75;;;19.88;57.81
7157;BME280;3620;49.862;8.758;2022-08-06T07:45:50;100212.50;;;19.97;56.83
7157;BME280;3620;49.862;8.758;2022-08-06T07:48:22;100206.72;;;20.03;58.01
7157;BME280;3620;49.862;8.758;2022-08-06T07:50:51;100208.88;;;20.11;57.23
7157;BME280;3620;49.862;8.758;2022-08-06T07:53:19;100211.69;;;20.22;56.64
7157;BME280;3620;49.862;8.758;2022-08-06T07:55:48;100216.59;;;20.28;56.05
7157;BME280;3620;49.862;8.758;2022-08-06T07:58:15;100221.50;;;20.34;54.41
7157;BME280;3620;49.862;8.758;2022-08-06T08:00:43;100216.81;;;20.37;54.39
7157;BME280;3620;49.862;8.758;2022-08-06T08:03:10;100212.22;;;20.39;54.25
7157;BME280;3620;49.862;8.758;2022-08-06T08:05:55;100205.06;;;20.53;52.36
7157;BME280;3620;49.862;8.758;2022-08-06T08:08:39;100203.66;;;20.60;52.25
7157;BME280;3620;49.862;8.758;2022-08-06T08:11:08;100212.50;;;20.73;52.22
7157;BME280;3620;49.862;8.758;2022-08-06T08:13:36;100218.72;;;20.73;49.27
7157;BME280;3620;49.862;8.758;2022-08-06T08:16:04;100215.06;;;20.74;48.47
7157;BME280;3620;49.862;8.758;2022-08-06T08:18:33;100208.25;;;20.70;49.14
7157;BME280;3620;49.862;8.758;2022-08-06T08:21:01;100212.50;;;20.73;49.60
7157;BME280;3620;49.862;8.758;2022-08-06T08:23:29;100217.41;;;20.79;51.05
7157;BME280;3620;49.862;8.758;2022-08-06T08:25:58;100230.50;;;20.71;47.68
7157;BME280;3620;49.862;8.758;2022-08-06T08:28:27;100224.50;;;20.55;48.14
7157;BME280;3620;49.862;8.758;2022-08-06T08:30:54;100226.88;;;20.47;48.32
7157;BME280;3620;49.862;8.758;2022-08-06T08:33:24;100213.38;;;20.61;49.98
7157;BME280;3620;49.862;8.758;2022-08-06T08:35:51;100213.69;;;20.69;49.63
7157;BME280;3620;49.862;8.758;2022-08-06T08:38:18;100222.31;;;20.85;49.61
7157;BME280;3620;49.862;8.758;2022-08-06T08:40:47;100225.84;;;20.85;47.74
7157;BME280;3620;49.862;8.758;2022-08-06T08:43:18;100214.66;;;20.68;47.91
7157;BME280;3620;49.862;8.758;2022-08-06T08:45:48;100207.81;;;20.64;47.72
7157;BME280;3620;49.862;8.758;2022-08-06T08:48:20;100215.94;;;20.75;47.56
7157;BME280;3620;49.862;8.758;2022-08-06T08:50:49;100215.28;;;20.71;47.42
7157;BME280;3620;49.862;8.758;2022-08-06T08:53:22;100215.09;;;20.62;47.40
7157;BME280;3620;49.862;8.758;2022-08-06T08:55:52;100209.31;;;20.42;45.81
7157;BME280;3620;49.862;8.758;2022-08-06T08:58:19;100207.19;;;20.48;46.19
7157;BME280;3620;49.862;8.758;2022-08-06T09:00:48;100215.09;;;20.62;46.56
7157;BME280;3620;49.862;8.758;2022-08-06T09:03:15;100209.31;;;20.68;46.83
7157;BME280;3620;49.862;8.758;2022-08-06T09:05:42;100209.31;;;20.68;45.94
7157;BME280;3620;49.862;8.758;2022-08-06T09:08:10;100207.38;;;20.70;46.01
7157;BME280;3620;49.862;8.758;2022-08-06T09:10:37;100215.28;;;20.71;46.34
7157;BME280;3620;49.862;8.758;2022-08-06T09:13:04;100207.22;;;20.96;46.83
7157;BME280;3620;49.862;8.758;2022-08-06T09:15:30;100212.88;;;21.17;45.74
7157;BME280;3620;49.862;8.758;2022-08-06T09:17:58;100215.34;;;21.31;44.16
7157;BME280;3620;49.862;8.758;2022-08-06T09:20:25;100211.06;;;21.41;44.20
7157;BME280;3620;49.862;8.758;2022-08-06T09:22:52;100214.00;;;21.49;45.43
7157;BME280;3620;49.862;8.758;2022-08-06T09:25:35;100210.03;;;21.55;44.07
7157;BME280;3620;49.862;8.758;2022-08-06T09:28:03;100204.91;;;21.28;42.63
7157;BME280;3620;49.862;8.758;2022-08-06T09:30:30;100217.03;;;21.21;42.68
7157;BME280;3620;49.862;8.758;2022-08-06T09:32:58;100208.78;;;21.24;43.63
7157;BME280;3620;49.862;8.758;2022-08-06T09:35:26;100207.97;;;21.35;44.52
7157;BME280;3620;49.862;8.758;2022-08-06T09:38:00;100193.03;;;21.43;43.44
7157;BME280;3620;49.862;8.758;2022-08-06T09:40:27;100198.19;;;21.46;43.89
7157;BME280;3620;49.862;8.758;2022-08-06T09:42:54;100202.28;;;21.39;43.30
7157;BME280;3620;49.862;8.758;2022-08-06T09:45:22;100199.25;;;21.44;43.76
7157;BME280;3620;49.862;8.758;2022-08-06T09:48:01;100201.34;;;21.51;43.62
7157;BME280;3620;49.862;8.758;2022-08-06T09:50:40;100196.16;;;21.61;43.90
7157;BME280;3620;49.862;8.758;2022-08-06T09:53:08;100204.06;;;21.62;44.30
7157;BME280;3620;49.862;8.758;2022-08-06T09:55:35;100195.81;;;21.65;44.49
7157;BME280;3620;49.862;8.758;2022-08-06T09:58:02;100194.13;;;21.64;42.70
7157;BME280;3620;49.862;8.758;2022-08-06T10:00:36;100192.06;;;21.68;43.55
7157;BME280;3620;49.862;8.758;2022-08-06T10:03:07;100192.63;;;21.60;43.69
7157;BME280;3620;49.862;8.758;2022-08-06T10:05:35;100198.31;;;21.79;44.97
7157;BME280;3620;49.862;8.758;2022-08-06T10:08:05;100197.19;;;21.95;44.69
7157;BME280;3620;49.862;8.758;2022-08-06T10:10:42;100190.63;;;22.10;44.04
7157;BME280;3620;49.862;8.758;2022-08-06T10:13:14;100196.72;;;22.12;43.14
7157;BME280;3620;49.862;8.758;2022-08-06T10:15:44;100191.13;;;22.15;44.32
7157;BME280;3620;49.862;8.758;2022-08-06T10:18:29;100196.66;;;22.24;43.95
7157;BME280;3620;49.862;8.758;2022-08-06T10:21:00;100199.41;;;22.23;43.32
7157;BME280;3620;49.862;8.758;2022-08-06T10:23:28;100202.47;;;22.18;43.77
7157;BME280;3620;49.862;8.758;2022-08-06T10:25:56;100200.66;;;22.30;43.81
7157;BME280;3620;49.862;8.758;2022-08-06T10:28:23;100194.34;;;22.42;42.50
7157;BME280;3620;49.862;8.758;2022-08-06T10:30:53;100198.72;;;22.54;41.59
7157;BME280;3620;49.862;8.758;2022-08-06T10:33:22;100189.69;;;22.33;41.49
7157;BME280;3620;49.862;8.758;2022-08-06T10:35:54;100188.84;;;22.43;42.68
7157;BME280;3620;49.862;8.758;2022-08-06T10:38:26;100184.44;;;22.42;42.48
7157;BME280;3620;49.862;8.758;2022-08-06T10:40:53;100184.94;;;22.25;42.21
7157;BME280;3620;49.862;8.758;2022-08-06T10:43:20;100188.81;;;22.21;41.42
7157;BME280;3620;49.862;8.758;2022-08-06T10:45:48;100191.50;;;22.21;41.28
7157;BME280;3620;49.862;8.758;2022-08-06T10:48:15;100190.31;;;22.36;42.07
7157;BME280;3620;49.862;8.758;2022-08-06T10:50:44;100182.56;;;22.67;42.48
7157;BME280;3620;49.862;8.758;2022-08-06T10:53:11;100186.81;;;22.69;42.11
7157;BME280;3620;49.862;8.758;2022-08-06T10:55:38;100185.09;;;22.68;41.63
7157;BME280;3620;49.862;8.758;2022-08-06T10:58:05;100192.16;;;22.69;41.06
7157;BME280;3620;49.862;8.758;2022-08-06T11:00:33;100181.94;;;22.63;40.50
7157;BME280;3620;49.862;8.758;2022-08-06T11:03:10;100191.81;;;22.63;39.88
7157;BME280;3620;49.862;8.758;2022-08-06T11:05:40;100186.56;;;22.72;40.39
7157;BME280;3620;49.862;8.758;2022-08-06T11:08:27;100177.06;;;22.79;40.14
7157;BME280;3620;49.862;8.758;2022-08-06T11:11:11;100165.75;;;23.07;41.10
7157;BME280;3620;49.862;8.758;2022-08-06T11:13:54;100162.66;;;23.34;40.99
7157;BME280;3620;49.862;8.758;2022-08-06T11:16:24;100166.59;;;23.62;41.37
7157;BME280;3620;49.862;8.758;2022-08-06T11:19:02;100168.97;;;23.76;40.00
7157;BME280;3620;49.862;8.758;2022-08-06T11:21:40;100166.31;;;23.65;37.38
7157;BME280;3620;49.862;8.758;2022-08-06T11:24:09;100165.88;;;23.60;37.55
7157;BME280;3620;49.862;8.758;2022-08-06T11:26:38;100163.19;;;23.60;38.22
7157;BME280;3620;49.862;8.758;2022-08-06T11:29:06;100165.50;;;23.64;38.73
7157;BME280;3620;49.862;8.758;2022-08-06T11:31:38;100157.97;;;23.79;38.80
7157;BME280;3620;49.862;8.758;2022-08-06T11:34:08;100153.22;;;23.92;39.12
7157;BME280;3620;49.862;8.758;2022-08-06T11:36:44;100151.88;;;24.18;37.74
7157;BME280;3620;49.862;8.758;2022-08-06T11:39:13;100158.38;;;24.46;37.91
7157;BME280;3620;49.862;8.758;2022-08-06T11:41:47;100148.75;;;24.43;36.47
7157;BME280;3620;49.862;8.758;2022-08-06T11:44:15;100146.50;;;24.48;37.11
7157;BME280;3620;49.862;8.758;2022-08-06T11:46:43;100154.66;;;24.37;35.53
7157;BME280;3620;49.862;8.758;2022-08-06T11:49:24;100147.75;;;24.14;36.08
7157;BME280;3620;49.862;8.758;2022-08-06T11:52:00;100152.44;;;23.80;37.06
7157;BME280;3620;49.862;8.758;2022-08-06T11:54:30;100147.91;;;23.81;37.10
7157;BME280;3620;49.862;8.758;2022-08-06T11:57:22;100147.13;;;23.90;37.51
7157;BME280;3620;49.862;8.758;2022-08-06T12:00:10;100132.91;;;23.99;38.44
7157;BME280;3620;49.862;8.758;2022-08-06T12:02:58;100141.06;;;24.09;38.79
7157;BME280;3620;49.862;8.758;2022-08-06T12:05:35;100121.44;;;24.18;39.49
7157;BME280;3620;49.862;8.758;2022-08-06T12:08:24;100134.75;;;24.19;36.93
7157;BME280;3620;49.862;8.758;2022-08-06T12:14:04;100134.16;;;24.16;37.36
7157;BME280;3620;49.862;8.758;2022-08-06T12:16:33;100123.75;;;24.22;37.60
7157;BME280;3620;49.862;8.758;2022-08-06T12:19:02;100126.06;;;24.36;38.42
7157;BME280;3620;49.862;8.758;2022-08-06T12:21:29;100129.47;;;24.38;36.35
7157;BME280;3620;49.862;8.758;2022-08-06T12:23:56;100119.88;;;24.45;37.69
7157;BME280;3620;49.862;8.758;2022-08-06T12:26:23;100110.09;;;24.44;37.73
7157;BME280;3620;49.862;8.758;2022-08-06T12:29:00;100115.69;;;24.22;37.04
7157;BME280;3620;49.862;8.758;2022-08-06T12:31:30;100104.78;;;24.24;37.78
7157;BME280;3620;49.862;8.758;2022-08-06T12:33:57;100113.88;;;24.32;37.13
7157;BME280;3620;49.862;8.758;2022-08-06T12:36:32;100113.25;;;24.19;36.50
7157;BME280;3620;49.862;8.758;2022-08-06T12:39:00;100103.53;;;24.07;36.38
7157;BME280;3620;49.862;8.758;2022-08-06T12:41:38;100097.50;;;23.94;36.81
7157;BME280;3620;49.862;8.758;2022-08-06T12:44:10;100097.66;;;24.13;37.20
7157;BME280;3620;49.862;8.758;2022-08-06T12:46:38;100100.81;;;24.28;36.73
7157;BME280;3620;49.862;8.758;2022-08-06T12:49:05;100096.31;;;24.38;36.96
7157;BME280;3620;49.862;8.758;2022-08-06T12:51:33;100094.69;;;24.46;36.27
7157;BME280;3620;49.862;8.758;2022-08-06T12:54:04;100091.72;;;24.19;35.79
7157;BME280;3620;49.862;8.758;2022-08-06T12:56:38;100081.53;;;24.23;35.78
7157;BME280;3620;49.862;8.758;2022-08-06T12:59:09;100089.75;;;24.21;36.30
7157;BME280;3620;49.862;8.758;2022-08-06T13:01:37;100090.38;;;24.34;35.56
7157;BME280;3620;49.862;8.758;2022-08-06T13:04:09;100091.09;;;24.36;34.53
7157;BME280;3620;49.862;8.758;2022-08-06T13:06:37;100089.00;;;24.40;35.36
7157;BME280;3620;49.862;8.758;2022-08-06T13:09:05;100080.97;;;24.19;35.03
7157;BME280;3620;49.862;8.758;2022-08-06T13:11:33;100076.47;;;24.29;36.39
7157;BME280;3620;49.862;8.758;2022-08-06T13:14:07;100081.03;;;24.38;36.02
7157;BME280;3620;49.862;8.758;2022-08-06T13:16:42;100069.34;;;24.49;35.41
7157;BME280;3620;49.862;8.758;2022-08-06T13:19:12;100076.47;;;24.29;34.86
7157;BME280;3620;49.862;8.758;2022-08-06T13:21:39;100070.66;;;24.24;35.40
7157;BME280;3620;49.862;8.758;2022-08-06T13:24:08;100067.72;;;24.37;36.82
7157;BME280;3620;49.862;8.758;2022-08-06T13:26:48;100073.91;;;24.28;34.92
7157;BME280;3620;49.862;8.758;2022-08-06T13:29:17;100075.84;;;24.16;34.98
7157;BME280;3620;49.862;8.758;2022-08-06T13:31:57;100059.41;;;24.10;34.63
7157;BME280;3620;49.862;8.758;2022-08-06T13:34:25;100059.19;;;24.22;36.75